Time;durP1;ratioP1;P1;durP2;ratioP2;P2;SDS_P1;SDS_P2;PMS_P1;PMS_P2;Temp;Humidity;BMP_temperature;BMP_pressure;BME280_temperature;BME280_humidity;BME280_pressure;Samples;Min_cycle;Max_cycle;Signal;HPM_P1;HPM_P2
2022/10/30 13:07:27;;;;;;;0.55;0.40;;;18.30;88.90;;;;;;5150057;27;20195;-73
2022/10/30 13:58:03;;;;;;;0.40;0.40;;;18.80;88.80;;;;;;5150687;27;20191;-72
2022/10/30 14:01:08;;;;;;;0.85;0.80;;;18.70;90.30;;;;;;5129662;28;20038;-72
2022/10/30 14:03:51;;;;;;;1.38;0.80;;;18.70;91.30;;;;;;5129660;28;20084;-72
2022/10/30 14:06:43;;;;;;;1.08;0.88;;;18.70;92.10;;;;;;5107712;28;20036;-72
2022/10/30 14:09:28;;;;;;;2.08;1.20;;;18.70;92.70;;;;;;5114135;28;20038;-72
2022/10/30 14:11:54;;;;;;;1.48;1.10;;;18.70;93.10;;;;;;5129324;28;20092;-72
2022/10/30 14:14:29;;;;;;;1.20;1.10;;;18.70;93.30;;;;;;5129934;28;20039;-72
2022/10/30 14:17:13;;;;;;;3.17;1.42;;;18.70;93.50;;;;;;5111079;28;20035;-72
2022/10/30 14:20:09;;;;;;;1.95;1.30;;;18.70;93.70;;;;;;5091788;28;20114;-72
2022/10/30 14:22:36;;;;;;;1.85;1.30;;;18.70;93.70;;;;;;5113967;28;20039;-72
2022/10/30 14:25:12;;;;;;;3.47;1.50;;;18.70;93.70;;;;;;5129275;28;20118;-73
2022/10/30 14:27:38;;;;;;;2.33;1.50;;;18.60;93.80;;;;;;5126878;28;20112;-72
2022/10/30 14:30:18;;;;;;;1.83;1.40;;;18.60;93.80;;;;;;5109139;28;20035;-72
2022/10/30 14:32:48;;;;;;;1.95;1.40;;;18.50;93.90;;;;;;5110661;28;20047;-73
2022/10/30 14:35:32;;;;;;;4.38;1.60;;;18.50;93.90;;;;;;5129201;28;20109;-73
2022/10/30 14:38:21;;;;;;;1.83;1.30;;;18.50;94.00;;;;;;5109790;28;20043;-72
2022/10/30 14:41:14;;;;;;;2.28;1.38;;;18.50;93.90;;;;;;5129660;28;20123;-72
2022/10/30 14:44:18;;;;;;;1.85;1.50;;;18.50;94.00;;;;;;5127927;28;20134;-72
2022/10/30 14:47:00;;;;;;;1.67;1.30;;;18.40;93.90;;;;;;5128448;28;20104;-72
2022/10/30 14:49:50;;;;;;;2.10;1.20;;;18.50;93.90;;;;;;5128651;28;20108;-73
2022/10/30 14:52:37;;;;;;;1.88;1.25;;;18.50;94.20;;;;;;5128493;28;20051;-73
2022/10/30 14:55:32;;;;;;;1.63;1.40;;;18.50;93.90;;;;;;5128677;28;20465;-72
2022/10/30 14:58:21;;;;;;;2.05;1.40;;;18.50;93.90;;;;;;5128280;28;20525;-72
2022/10/30 15:00:47;;;;;;;2.28;1.50;;;18.50;93.90;;;;;;5128678;28;20047;-72
2022/10/30 15:03:40;;;;;;;1.73;1.27;;;18.50;93.90;;;;;;5128557;28;20126;-72
2022/10/30 15:06:33;;;;;;;2.20;1.40;;;18.40;93.80;;;;;;5128492;28;20126;-72
2022/10/30 15:09:23;;;;;;;1.73;1.17;;;18.40;93.80;;;;;;5115943;28;20099;-72
2022/10/30 15:12:13;;;;;;;1.83;1.38;;;18.50;93.80;;;;;;5098510;28;20040;-72
2022/10/30 15:14:45;;;;;;;1.92;1.27;;;18.50;93.80;;;;;;5115100;28;20111;-72
2022/10/30 15:17:32;;;;;;;2.05;1.30;;;18.50;93.80;;;;;;5115067;28;20044;-72
2022/10/30 15:20:03;;;;;;;1.55;1.10;;;18.40;93.70;;;;;;5096483;28;20059;-72
2022/10/30 15:22:31;;;;;;;1.80;1.20;;;18.40;93.70;;;;;;5096428;28;20419;-72
2022/10/30 15:24:57;;;;;;;1.92;1.30;;;18.30;93.70;;;;;;5114597;28;20035;-71
2022/10/30 15:27:24;;;;;;;1.98;1.40;;;18.30;93.70;;;;;;5114354;28;20126;-72
2022/10/30 15:29:54;;;;;;;2.35;1.30;;;18.30;93.70;;;;;;5096133;28;20040;-72
2022/10/30 15:32:22;;;;;;;1.23;1.10;;;18.20;93.70;;;;;;5114414;28;20039;-72
2022/10/30 15:34:59;;;;;;;2.13;1.50;;;18.20;93.60;;;;;;5114749;28;20051;-72
2022/10/30 15:37:26;;;;;;;1.65;1.20;;;18.10;93.70;;;;;;5114108;28;20398;-71
2022/10/30 15:40:15;;;;;;;1.70;1.20;;;18.10;93.70;;;;;;5114347;28;20064;-71
2022/10/30 15:42:42;;;;;;;1.75;1.23;;;18.10;93.70;;;;;;5111047;28;20039;-72
2022/10/30 15:45:17;;;;;;;3.30;1.70;;;18.00;93.70;;;;;;5114670;28;20032;-71
2022/10/30 15:47:46;;;;;;;2.10;1.40;;;17.90;93.70;;;;;;5095802;28;20120;-72
2022/10/30 15:50:14;;;;;;;2.53;1.45;;;17.90;93.70;;;;;;5114240;28;20118;-71
2022/10/30 15:52:42;;;;;;;1.63;1.48;;;17.80;93.70;;;;;;5096569;28;20517;-71
2022/10/30 15:55:14;;;;;;;2.28;1.38;;;17.80;93.70;;;;;;5114158;28;20096;-71
2022/10/30 15:57:49;;;;;;;1.58;1.40;;;17.80;94.00;;;;;;5113989;28;20493;-72
2022/10/30 16:00:29;;;;;;;2.13;1.33;;;17.70;93.80;;;;;;5114285;28;20066;-72
2022/10/30 16:02:59;;;;;;;2.03;1.27;;;17.60;93.80;;;;;;5113574;28;20031;-73
2022/10/30 16:05:26;;;;;;;1.98;1.52;;;17.50;93.80;;;;;;5095396;28;20478;-73
2022/10/30 16:07:56;;;;;;;2.15;1.52;;;17.40;93.80;;;;;;5113878;28;20040;-73
2022/10/30 16:10:26;;;;;;;1.77;1.10;;;17.40;93.80;;;;;;5113938;28;20074;-72
2022/10/30 16:12:55;;;;;;;2.75;1.52;;;17.40;94.10;;;;;;5113713;28;20043;-72
2022/10/30 16:15:28;;;;;;;1.55;1.25;;;17.30;93.80;;;;;;5096106;28;20497;-71
2022/10/30 16:18:12;;;;;;;2.20;1.42;;;17.20;93.80;;;;;;5113614;28;20044;-72
2022/10/30 16:20:41;;;;;;;1.58;1.23;;;17.20;93.80;;;;;;5110446;28;20550;-73
2022/10/30 16:23:07;;;;;;;2.88;1.42;;;17.10;93.80;;;;;;5113474;28;20046;-71
2022/10/30 16:25:36;;;;;;;2.53;1.50;;;17.10;93.80;;;;;;5113906;28;20036;-71
2022/10/30 16:28:03;;;;;;;2.85;1.58;;;17.00;93.90;;;;;;5113745;28;20047;-72
2022/10/30 16:30:30;;;;;;;2.20;1.50;;;17.00;93.90;;;;;;5113629;28;20540;-72
2022/10/30 16:32:57;;;;;;;2.95;1.65;;;16.90;93.90;;;;;;5113561;28;20040;-73
2022/10/30 16:35:24;;;;;;;2.28;1.45;;;16.90;93.90;;;;;;5113498;28;20036;-72
2022/10/30 16:37:50;;;;;;;2.97;1.70;;;16.90;93.90;;;;;;5113390;28;20484;-72
2022/10/30 16:40:21;;;;;;;2.78;1.63;;;16.90;93.90;;;;;;5113380;28;20028;-73
2022/10/30 16:42:53;;;;;;;2.72;1.50;;;16.90;93.80;;;;;;5113659;28;20059;-72
2022/10/30 16:45:47;;;;;;;2.38;1.63;;;17.00;93.80;;;;;;5109564;28;20047;-72
2022/10/30 16:48:20;;;;;;;2.38;1.65;;;17.00;93.70;;;;;;5112229;28;21304;-73
2022/10/30 16:50:46;;;;;;;3.28;1.77;;;17.00;93.70;;;;;;5113024;28;20044;-73
2022/10/30 16:53:22;;;;;;;3.63;2.00;;;17.00;93.60;;;;;;5113109;28;20032;-73
2022/10/30 16:55:49;;;;;;;5.45;2.00;;;17.00;93.50;;;;;;5113466;28;20044;-73
2022/10/30 16:58:16;;;;;;;3.65;1.80;;;17.00;93.50;;;;;;5113613;28;20378;-73
2022/10/30 17:00:50;;;;;;;3.38;2.00;;;17.00;93.50;;;;;;5113041;28;20036;-73
2022/10/30 17:03:23;;;;;;;3.15;2.00;;;17.00;93.40;;;;;;5095670;28;20040;-73
2022/10/30 17:05:59;;;;;;;3.00;1.73;;;17.00;93.40;;;;;;5094696;28;20054;-73
2022/10/30 17:08:41;;;;;;;2.83;1.80;;;17.00;93.30;;;;;;5112731;28;20039;-73
2022/10/30 17:11:16;;;;;;;4.57;1.90;;;17.10;93.30;;;;;;5111878;28;20135;-73
2022/10/30 17:14:00;;;;;;;3.17;1.83;;;17.00;93.30;;;;;;5112719;28;20173;-73
2022/10/30 17:16:29;;;;;;;4.20;2.08;;;17.00;93.20;;;;;;5112623;28;20051;-73
2022/10/30 17:18:58;;;;;;;4.50;2.00;;;17.00;93.20;;;;;;5112490;28;20463;-73
2022/10/30 17:21:41;;;;;;;2.53;1.75;;;16.90;93.10;;;;;;5094400;28;20489;-73
2022/10/30 17:24:32;;;;;;;2.83;1.52;;;16.90;93.10;;;;;;5096616;28;20400;-73
2022/10/30 17:27:03;;;;;;;2.20;1.45;;;17.00;93.10;;;;;;5112727;28;20044;-73
2022/10/30 17:29:44;;;;;;;2.17;1.63;;;16.90;93.10;;;;;;5112897;28;20047;-73
2022/10/30 17:32:17;;;;;;;;;;;16.90;93.10;;;;;;5093785;28;20047;-72
2022/10/30 17:34:43;;;;;;;2.22;1.42;;;16.90;93.10;;;;;;5091762;28;20331;-72
2022/10/30 17:37:08;;;;;;;2.53;1.52;;;16.80;93.10;;;;;;5112077;28;20035;-72
2022/10/30 17:39:34;;;;;;;2.13;1.20;;;16.80;93.10;;;;;;5112299;28;20534;-72
2022/10/30 17:42:00;;;;;;;1.85;1.30;;;16.70;93.10;;;;;;5112500;28;20482;-72
2022/10/30 17:44:26;;;;;;;2.05;1.30;;;16.70;93.10;;;;;;5077157;28;20428;-73
2022/10/30 17:46:53;;;;;;;3.03;1.45;;;16.70;93.10;;;;;;5112510;28;20414;-73
2022/10/30 17:49:27;;;;;;;1.80;1.40;;;16.60;93.10;;;;;;5112177;28;20054;-73
2022/10/30 17:51:54;;;;;;;2.53;1.27;;;16.60;93.10;;;;;;5093849;28;20040;-73
2022/10/30 17:54:20;;;;;;;1.27;1.08;;;16.60;93.10;;;;;;5094367;28;20095;-73
2022/10/30 17:56:45;;;;;;;1.58;1.10;;;16.60;93.20;;;;;;5112427;28;20043;-72
2022/10/30 17:59:12;;;;;;;1.20;0.98;;;16.50;93.20;;;;;;5093970;28;20039;-73
2022/10/30 18:01:43;;;;;;;1.10;1.00;;;16.50;93.10;;;;;;5094212;28;20096;-72
2022/10/30 18:04:13;;;;;;;;;;;16.50;93.10;;;;;;5112545;28;20393;-72
2022/10/30 18:06:39;;;;;;;1.08;0.95;;;16.50;93.10;;;;;;5112589;28;19915;-72
2022/10/30 18:09:05;;;;;;;0.82;0.82;;;16.50;93.20;;;;;;5112645;28;20055;-72
2022/10/30 18:11:30;;;;;;;1.25;0.98;;;16.40;93.10;;;;;;5093749;28;20035;-73
2022/10/30 18:13:57;;;;;;;1.17;1.00;;;16.40;93.10;;;;;;5112590;28;20490;-72
2022/10/30 18:16:23;;;;;;;1.15;0.90;;;16.40;93.20;;;;;;5111946;28;20036;-72
2022/10/30 18:18:49;;;;;;;1.58;1.00;;;16.30;93.10;;;;;;5112390;28;20453;-73
2022/10/30 18:21:18;;;;;;;1.40;1.00;;;16.30;93.10;;;;;;5093973;28;20043;-72
2022/10/30 18:23:44;;;;;;;0.93;0.85;;;16.20;93.10;;;;;;5112184;28;20051;-73
2022/10/30 18:26:21;;;;;;;1.73;1.00;;;16.20;93.20;;;;;;5111904;28;20122;-73
2022/10/30 18:28:47;;;;;;;1.25;1.10;;;16.20;93.20;;;;;;5112339;28;20129;-72
2022/10/30 18:31:16;;;;;;;1.10;1.00;;;16.20;93.20;;;;;;5112668;28;20094;-72
2022/10/30 18:33:43;;;;;;;1.70;1.10;;;16.20;93.20;;;;;;5111839;28;20141;-72
2022/10/30 18:36:19;;;;;;;1.52;1.20;;;16.10;93.10;;;;;;5093746;28;20055;-72
2022/10/30 18:38:45;;;;;;;1.50;0.93;;;16.00;93.10;;;;;;5111839;28;20055;-73
2022/10/30 18:41:21;;;;;;;1.50;1.00;;;16.00;93.10;;;;;;5093713;28;20046;-72
2022/10/30 18:43:48;;;;;;;1.00;0.90;;;16.10;93.20;;;;;;5114197;28;20122;-72
2022/10/30 18:46:15;;;;;;;1.85;1.20;;;16.00;93.20;;;;;;5115282;28;20078;-73
2022/10/30 18:48:42;;;;;;;1.30;1.10;;;16.00;93.20;;;;;;5115210;28;20088;-72
2022/10/30 18:51:16;;;;;;;2.95;0.95;;;16.00;93.20;;;;;;5115440;28;20050;-72
2022/10/30 18:53:49;;;;;;;1.30;1.10;;;16.00;93.50;;;;;;5115433;28;20101;-72
2022/10/30 18:56:17;;;;;;;1.02;0.90;;;15.90;93.20;;;;;;5115545;28;20389;-72
2022/10/30 18:58:43;;;;;;;1.33;0.80;;;15.90;93.20;;;;;;5115294;28;20097;-72
2022/10/30 19:01:09;;;;;;;1.58;1.02;;;15.90;93.20;;;;;;5115123;28;20036;-72
2022/10/30 19:03:35;;;;;;;1.33;0.95;;;15.90;93.20;;;;;;5115579;28;20481;-72
2022/10/30 19:06:01;;;;;;;1.25;0.98;;;15.90;93.20;;;;;;5115614;28;20137;-73
2022/10/30 19:08:27;;;;;;;0.93;0.82;;;15.80;93.20;;;;;;5096705;28;20497;-72
2022/10/30 19:10:55;;;;;;;1.00;0.90;;;15.80;93.20;;;;;;5115199;28;20040;-72
2022/10/30 19:13:21;;;;;;;1.00;0.90;;;15.80;93.20;;;;;;5114968;28;20488;-72
2022/10/30 19:15:50;;;;;;;0.88;0.82;;;15.80;93.10;;;;;;5114610;28;20097;-72
2022/10/30 19:18:16;;;;;;;1.67;1.00;;;15.80;93.20;;;;;;5114725;28;20090;-72
2022/10/30 19:20:42;;;;;;;1.75;1.00;;;15.70;93.10;;;;;;5114812;28;20047;-72
2022/10/30 19:23:18;;;;;;;1.13;1.00;;;15.70;93.10;;;;;;5115160;28;20084;-72
2022/10/30 19:25:44;;;;;;;1.80;1.10;;;15.70;93.20;;;;;;5111852;28;20043;-72
2022/10/30 19:28:11;;;;;;;1.77;0.93;;;15.70;93.20;;;;;;5094560;28;20047;-73
2022/10/30 19:30:37;;;;;;;1.85;1.00;;;15.60;93.10;;;;;;5114710;28;20168;-73
2022/10/30 19:33:03;;;;;;;1.73;1.10;;;15.60;93.20;;;;;;5114776;28;20094;-72
2022/10/30 19:35:29;;;;;;;0.93;0.82;;;15.60;93.20;;;;;;5115160;28;20127;-72
2022/10/30 19:37:55;;;;;;;1.00;0.90;;;15.60;93.20;;;;;;5113032;28;20047;-73
2022/10/30 19:40:25;;;;;;;1.23;0.95;;;15.60;93.20;;;;;;5079352;28;20048;-72
2022/10/30 19:42:51;;;;;;;1.80;1.23;;;15.60;93.20;;;;;;5114401;28;20039;-72
2022/10/30 19:45:18;;;;;;;1.27;0.90;;;15.60;93.10;;;;;;5095211;28;20040;-72
2022/10/30 19:47:48;;;;;;;1.00;0.90;;;15.70;93.20;;;;;;5114498;28;20039;-72
2022/10/30 19:50:22;;;;;;;1.63;0.95;;;15.50;93.10;;;;;;5092785;28;20037;-72
2022/10/30 19:52:49;;;;;;;1.27;0.75;;;15.50;93.10;;;;;;5093834;28;20090;-72
2022/10/30 19:55:16;;;;;;;2.10;0.85;;;15.50;93.10;;;;;;5114727;28;20047;-72
2022/10/30 19:57:42;;;;;;;1.20;0.80;;;15.40;93.10;;;;;;5114364;28;20466;-73
2022/10/30 20:00:16;;;;;;;2.00;1.00;;;15.40;93.10;;;;;;5095599;28;20052;-72
2022/10/30 20:02:42;;;;;;;0.98;0.80;;;15.40;93.20;;;;;;5114521;28;20108;-72
2022/10/30 20:05:10;;;;;;;1.20;0.90;;;15.40;93.20;;;;;;5114032;28;20052;-72
2022/10/30 20:07:36;;;;;;;1.40;1.00;;;15.30;93.20;;;;;;5114291;28;20126;-72
2022/10/30 20:10:12;;;;;;;1.50;1.00;;;15.30;93.20;;;;;;5113739;28;20130;-72
2022/10/30 20:12:38;;;;;;;1.27;1.00;;;15.30;93.20;;;;;;5114492;28;20122;-72
2022/10/30 20:15:04;;;;;;;1.40;1.10;;;15.30;93.20;;;;;;5113828;28;20063;-73
2022/10/30 20:17:29;;;;;;;1.77;0.77;;;15.20;93.20;;;;;;5113602;28;20057;-72
2022/10/30 20:19:55;;;;;;;1.08;0.95;;;15.20;93.20;;;;;;5114153;28;20477;-73
2022/10/30 20:22:21;;;;;;;1.60;1.02;;;15.20;93.20;;;;;;5094533;28;20123;-72
2022/10/30 20:24:46;;;;;;;1.05;0.88;;;15.20;93.10;;;;;;5114061;28;20036;-73
2022/10/30 20:27:12;;;;;;;1.85;1.00;;;15.20;93.20;;;;;;5113972;28;20465;-73
2022/10/30 20:29:41;;;;;;;1.88;0.93;;;15.20;93.10;;;;;;5113609;28;20054;-73
2022/10/30 20:32:08;;;;;;;0.95;0.82;;;15.20;93.10;;;;;;5077471;28;20409;-72
2022/10/30 20:34:34;;;;;;;1.35;1.02;;;15.20;93.10;;;;;;5114009;28;20043;-72
2022/10/30 20:37:00;;;;;;;1.20;1.00;;;15.10;93.10;;;;;;5114063;28;20043;-73
2022/10/30 20:39:25;;;;;;;1.17;0.88;;;15.10;93.10;;;;;;5113928;28;20935;-73
2022/10/30 20:41:51;;;;;;;0.98;0.90;;;15.10;93.10;;;;;;5096000;28;20042;-72
2022/10/30 20:44:17;;;;;;;0.75;0.75;;;15.10;93.20;;;;;;5095368;28;20100;-72
2022/10/30 20:46:42;;;;;;;1.50;0.85;;;15.00;93.10;;;;;;5113789;28;20065;-72
2022/10/30 20:49:08;;;;;;;1.27;1.10;;;15.00;93.10;;;;;;5113987;28;20127;-72
2022/10/30 20:51:34;;;;;;;1.50;1.05;;;15.00;93.10;;;;;;5113514;28;20435;-72
2022/10/30 20:53:59;;;;;;;1.20;0.95;;;15.00;93.10;;;;;;5113404;28;20043;-72
2022/10/30 20:56:25;;;;;;;1.48;1.00;;;15.00;93.10;;;;;;5113088;28;20048;-72
2022/10/30 20:58:52;;;;;;;1.83;1.20;;;15.00;93.20;;;;;;5093464;28;20060;-72
2022/10/30 21:01:18;;;;;;;0.80;0.80;;;14.90;93.10;;;;;;5095035;28;20044;-72
2022/10/30 21:03:43;;;;;;;1.17;1.00;;;14.90;93.10;;;;;;5077848;28;20051;-73
2022/10/30 21:06:09;;;;;;;1.45;0.90;;;14.90;93.10;;;;;;5093571;28;20051;-72
2022/10/30 21:08:35;;;;;;;1.70;1.00;;;15.00;93.20;;;;;;5095364;28;20032;-72
2022/10/30 21:11:03;;;;;;;1.90;1.23;;;14.90;93.10;;;;;;5095196;28;20035;-72
2022/10/30 21:13:31;;;;;;;1.35;1.02;;;14.90;93.10;;;;;;5113228;28;20077;-73
2022/10/30 21:16:03;;;;;;;1.02;0.93;;;14.90;93.10;;;;;;5094737;28;20043;-72
2022/10/30 21:18:29;;;;;;;1.15;0.95;;;14.80;93.10;;;;;;5112850;28;20065;-72
2022/10/30 21:21:00;;;;;;;1.00;0.80;;;14.70;93.10;;;;;;5112932;28;20040;-72
2022/10/30 21:23:26;;;;;;;1.88;0.90;;;14.80;93.10;;;;;;5112755;28;20032;-72
2022/10/30 21:26:09;;;;;;;1.35;1.00;;;14.70;93.10;;;;;;5094565;28;20054;-73
2022/10/30 21:28:35;;;;;;;1.35;0.88;;;14.70;93.20;;;;;;5112720;28;20044;-73
2022/10/30 21:31:03;;;;;;;1.00;0.90;;;14.70;93.20;;;;;;5112408;28;20040;-73
2022/10/30 21:33:30;;;;;;;1.00;0.90;;;14.60;93.20;;;;;;5112770;28;20058;-73
2022/10/30 21:35:56;;;;;;;1.10;1.00;;;14.60;93.20;;;;;;5112745;28;20096;-73
2022/10/30 21:38:21;;;;;;;1.98;1.15;;;14.60;93.20;;;;;;5112806;28;20035;-73
2022/10/30 21:40:55;;;;;;;0.80;0.80;;;14.60;93.20;;;;;;5112715;28;20184;-72
2022/10/30 21:43:21;;;;;;;1.15;1.00;;;14.50;93.20;;;;;;5112934;28;20046;-73
2022/10/30 21:45:46;;;;;;;1.98;1.10;;;14.60;93.20;;;;;;5112416;28;20039;-72
2022/10/30 21:48:12;;;;;;;1.50;0.98;;;14.50;93.20;;;;;;5112613;28;20523;-73
2022/10/30 21:50:38;;;;;;;0.80;0.80;;;14.50;93.20;;;;;;5112986;28;20040;-73
2022/10/30 21:53:03;;;;;;;0.98;0.88;;;14.50;93.20;;;;;;5112717;28;20048;-73
2022/10/30 21:55:29;;;;;;;1.15;1.02;;;14.40;93.20;;;;;;5112273;28;20073;-73
2022/10/30 21:57:55;;;;;;;1.33;1.02;;;14.40;93.20;;;;;;5094679;28;20131;-73
2022/10/30 22:00:20;;;;;;;1.58;0.98;;;14.40;93.20;;;;;;5112567;28;20035;-73
2022/10/30 22:02:46;;;;;;;1.83;1.02;;;14.30;93.20;;;;;;5112327;28;20061;-73
2022/10/30 22:05:12;;;;;;;1.33;0.95;;;14.20;93.20;;;;;;5112334;28;20397;-73
2022/10/30 22:07:38;;;;;;;0.80;0.80;;;14.20;93.30;;;;;;5093608;28;20073;-73
2022/10/30 22:10:05;;;;;;;1.10;1.00;;;14.20;93.30;;;;;;5112149;28;20051;-73
2022/10/30 22:12:31;;;;;;;1.70;1.08;;;14.20;93.30;;;;;;5093613;28;20040;-73
2022/10/30 22:14:57;;;;;;;1.30;0.90;;;14.10;93.30;;;;;;5112184;28;20042;-73
2022/10/30 22:17:22;;;;;;;1.52;1.20;;;14.00;93.20;;;;;;5112478;28;20126;-73
2022/10/30 22:19:48;;;;;;;2.35;1.17;;;14.00;93.20;;;;;;5116118;28;20036;-73
2022/10/30 22:22:14;;;;;;;1.35;1.10;;;14.00;93.20;;;;;;5116066;28;20038;-73
2022/10/30 22:24:40;;;;;;;1.33;0.95;;;13.90;93.20;;;;;;5098076;28;20122;-73
2022/10/30 22:27:05;;;;;;;1.10;1.00;;;14.00;93.30;;;;;;5115891;28;20389;-73
2022/10/30 22:29:31;;;;;;;1.13;1.02;;;13.90;93.30;;;;;;5116083;28;20561;-73
2022/10/30 22:31:57;;;;;;;1.92;1.02;;;13.90;93.30;;;;;;5097932;28;20428;-73
2022/10/30 22:34:23;;;;;;;1.38;1.02;;;13.90;93.20;;;;;;5116216;28;20075;-73
2022/10/30 22:36:48;;;;;;;1.60;1.02;;;13.80;93.20;;;;;;5115583;28;20115;-73
2022/10/30 22:39:14;;;;;;;1.48;0.93;;;13.80;93.30;;;;;;5116090;28;20052;-73
2022/10/30 22:41:41;;;;;;;1.60;1.00;;;13.80;93.30;;;;;;5115963;28;20433;-73
2022/10/30 22:44:11;;;;;;;1.40;1.00;;;13.70;93.30;;;;;;5115149;28;20031;-73
2022/10/30 22:46:37;;;;;;;1.23;1.00;;;13.70;93.30;;;;;;5115339;28;20045;-73
2022/10/30 22:49:03;;;;;;;1.48;1.10;;;13.60;93.30;;;;;;5115647;28;20667;-73
2022/10/30 22:51:32;;;;;;;0.95;0.88;;;13.60;93.30;;;;;;5115244;28;20046;-72
2022/10/30 22:54:00;;;;;;;1.40;0.88;;;13.60;93.30;;;;;;5097268;28;20050;-73
2022/10/30 22:56:30;;;;;;;1.45;0.98;;;13.60;93.30;;;;;;5115199;28;20093;-73
2022/10/30 22:58:58;;;;;;;1.27;1.00;;;13.50;93.30;;;;;;5114991;28;20497;-73
2022/10/30 23:01:27;;;;;;;0.98;0.88;;;13.50;93.40;;;;;;5114812;28;20043;-73
2022/10/30 23:03:55;;;;;;;1.10;0.95;;;13.50;93.40;;;;;;5114820;28;20039;-73
2022/10/30 23:06:22;;;;;;;1.45;1.00;;;13.50;93.40;;;;;;5114756;28;20043;-73
2022/10/30 23:08:48;;;;;;;2.58;1.00;;;13.40;93.40;;;;;;5114711;28;20444;-73
2022/10/30 23:11:14;;;;;;;1.35;0.98;;;13.40;93.40;;;;;;5114769;28;20621;-73
2022/10/30 23:13:40;;;;;;;2.65;1.00;;;13.40;93.40;;;;;;5114674;28;20066;-74
2022/10/30 23:16:10;;;;;;;1.92;1.10;;;13.40;93.40;;;;;;5115103;28;20120;-73
2022/10/30 23:18:35;;;;;;;1.00;0.88;;;13.40;93.40;;;;;;5114763;28;20050;-73
2022/10/30 23:21:05;;;;;;;1.42;0.98;;;13.40;93.30;;;;;;5114490;28;20043;-72
2022/10/30 23:23:34;;;;;;;1.20;0.80;;;13.40;93.30;;;;;;5114439;28;20032;-73
2022/10/30 23:26:06;;;;;;;1.23;1.00;;;13.40;93.30;;;;;;5114837;28;20558;-73
2022/10/30 23:28:32;;;;;;;1.45;0.95;;;13.30;93.30;;;;;;5114058;28;20040;-73
2022/10/30 23:30:58;;;;;;;1.40;1.13;;;13.30;93.30;;;;;;5114324;28;20059;-72
2022/10/30 23:33:24;;;;;;;1.70;1.10;;;13.30;93.30;;;;;;5114418;28;20485;-73
2022/10/30 23:35:49;;;;;;;1.00;0.90;;;13.30;93.30;;;;;;5114132;28;20036;-73
2022/10/30 23:38:15;;;;;;;1.58;0.90;;;13.20;93.30;;;;;;5114446;28;20547;-72
2022/10/30 23:40:41;;;;;;;1.73;1.00;;;13.20;93.30;;;;;;5114266;28;20393;-73
2022/10/30 23:43:06;;;;;;;1.50;1.10;;;13.20;93.30;;;;;;5114110;28;20062;-73
2022/10/30 23:45:32;;;;;;;1.58;1.13;;;13.20;93.30;;;;;;5114183;28;20438;-73
2022/10/30 23:47:58;;;;;;;1.60;1.00;;;13.10;93.30;;;;;;5096332;28;20458;-73
2022/10/30 23:50:24;;;;;;;1.00;0.90;;;13.10;93.30;;;;;;5114651;28;20118;-73
2022/10/30 23:52:49;;;;;;;1.42;1.00;;;13.10;93.30;;;;;;5114353;28;20512;-73
2022/10/30 23:55:15;;;;;;;1.63;1.10;;;13.10;93.30;;;;;;5114391;28;20050;-73
2022/10/30 23:57:41;;;;;;;1.45;1.00;;;13.10;93.30;;;;;;5113683;28;20036;-73
